NTAA/PPT METAR and TAF weather

Enter ICAO airport designator
Station Type Date Time Source
NTAA METAR 2021/07/30 23:30 UTC NOAA

NTAA 302330Z 21015KT 9999 FEW020 28/20 Q1014 WS R22 NOSIG


Station Type Date Time Source
NTAA Decoded METAR 2021/07/30 23:30 UTC NOAA

Tahiti-Faaa, French Polynesia (NTAA) 17-33S 149-37W 2M
Jul 30, 2021 - 07:30 PM EDT / 2021.07.30 2330 UTC
Wind: from the SSW (210 degrees) at 17 MPH (15 KT):0
Visibility: greater than 7 mile(s):0
Sky conditions: mostly clear
Temperature: 82 F (28 C)
Dew Point: 68 F (20 C)
Relative Humidity: 61%
Pressure (altimeter): 29.94 in. Hg (1014 hPa)
ob: NTAA 302330Z 21015KT 9999 FEW020 28/20 Q1014 WS R22 NOSIG
cycle: 23

Station Type Date Time Source
NTAA TAF 2021/07/30 18:17 UTC NOAA

TAF NTAA 301700Z 3018/3124 VRB03KT 9999 FEW023
TEMPO 3020/3104 20015KT

Example: see airport list